Airfield :
LOGIN :

Register | Disclaimer

   EN    FR    IT 

 










Legend :    VFR   Marginal VFR   IFR   Intensive IFR   Very Intensive IFR
Visi :
Ceiling :
>= 8 km
>= 3000ft
5 to 8 km
1000 to 3000 ft
1500m to 5 km
500 to 1000 ft
800 to 1500m
200 to 500 ft
< 800m
< 200 ft
Symbols :   Thunderstorms  Fog  Heavy snow  Heavy precipitations  Wind > 20 kt
SIGMETs :     Misc.  Thunderstorms  Icing  Turbulence  Mountain Waves  Volcanic Ashes






- Airport Elevation : 1299 ft


EDTY - Adolf Würth

CURRENT METAR :
  • 130650Z 12005KT 100V160 9999 FEW029 BKN060 01/M01 Q0980

EXPIRED METARs :
  • 130620Z 14006KT 100V180 9999 BKN028 OVC054 01/M01 Q0980
  • 130550Z 14006KT 110V180 9999 BKN027 OVC040 01/M01 Q0981
  • 130520Z 15006KT 100V190 9999 -SN BKN028 BKN036 OVC045 01/M01 Q0982
  • 130450Z 15007KT 100V180 9999 -RA FEW015 BKN026 OVC037 00/M01 Q0983
  • 130420Z 14005KT 110V180 6000 -SN FEW004 SCT007 OVC026 00/M01 Q0984

TAF TAF EDTY
Valid from the 13 at 06:00 until the 13 at 15:00 UTC


130500Z 1306/1315 15007KT 9999 FEW015 SCT025
TEMPO 1308/1313 3500 -SNRA BKN008
PROB40
TEMPO 1308/1313 2000 SN BKN004
BECMG 1309/1311 21010KT



MET'MAP, your aeronautical weather chart ! - Copyright ORBIFLY December 2007 - Disclaimer

ORBIFLY MET'MAP TEAM :

Programming & Development : Alexandra Zaïnal
Concept & original design : Baudouin d'Aumeries
Assistance for programming : Marc-Olivier Méhu
Technical & hardware support : Manuel Goepfert

Contact : metmap@orbifly.com




SOURCES & CREDITS :

   NOAA